createdAt,value
2018-10-01T00:02:22.645Z,7.25
2018-10-01T00:04:50.852Z,7.72
2018-10-01T00:07:19.077Z,6.70
2018-10-01T00:09:47.369Z,7.25
2018-10-01T00:12:15.529Z,7.08
2018-10-01T00:14:44.135Z,7.22
2018-10-01T00:17:12.407Z,6.42
2018-10-01T00:19:46.270Z,6.45
2018-10-01T00:22:20.225Z,6.35
2018-10-01T00:24:48.443Z,6.60
2018-10-01T00:27:16.672Z,7.28
2018-10-01T00:29:44.912Z,7.15
2018-10-01T00:32:13.123Z,6.80
2018-10-01T00:34:41.296Z,6.97
2018-10-01T00:37:09.481Z,7.25
2018-10-01T00:39:38.046Z,7.45
2018-10-01T00:42:06.324Z,6.50
2018-10-01T00:44:34.496Z,6.95
2018-10-01T00:47:02.701Z,6.92
2018-10-01T00:49:30.904Z,7.05
2018-10-01T00:51:59.085Z,7.35
2018-10-01T00:54:27.268Z,7.35
2018-10-01T00:56:55.447Z,7.90
2018-10-01T00:59:23.621Z,7.15
2018-10-01T01:01:51.828Z,7.10
2018-10-01T01:04:20.028Z,6.67
2018-10-01T01:06:48.212Z,6.50
2018-10-01T01:09:16.425Z,7.55
2018-10-01T01:11:44.635Z,7.15
2018-10-01T01:14:12.853Z,7.03
2018-10-01T01:16:41.155Z,8.38
2018-10-01T01:19:09.348Z,7.62
2018-10-01T01:21:37.508Z,7.10
2018-10-01T01:24:05.679Z,8.00
2018-10-01T01:26:33.929Z,7.20
2018-10-01T01:29:02.151Z,6.58
2018-10-01T01:31:30.246Z,6.72
2018-10-01T01:33:58.427Z,6.95
2018-10-01T01:36:26.595Z,7.10
2018-10-01T01:38:54.778Z,7.03
2018-10-01T01:41:23.840Z,6.47
2018-10-01T01:43:52.104Z,7.20
2018-10-01T01:46:20.336Z,6.17
2018-10-01T01:48:48.563Z,6.78
2018-10-01T01:51:16.801Z,6.17
2018-10-01T01:53:45.019Z,6.50
2018-10-01T01:56:13.219Z,7.00
2018-10-01T01:58:41.367Z,7.10
2018-10-01T02:01:09.533Z,7.92
2018-10-01T02:03:37.771Z,6.75
2018-10-01T02:06:06.035Z,7.12
2018-10-01T02:08:34.286Z,7.20
2018-10-01T02:11:02.465Z,7.10
2018-10-01T02:13:30.625Z,6.33
2018-10-01T02:15:58.751Z,6.60
2018-10-01T02:18:26.968Z,7.53
2018-10-01T02:20:55.245Z,6.70
2018-10-01T02:23:23.413Z,7.00
2018-10-01T02:25:51.593Z,6.47
2018-10-01T02:28:19.779Z,7.25
2018-10-01T02:30:47.940Z,6.72
2018-10-01T02:33:16.140Z,5.95
2018-10-01T02:35:44.357Z,6.90
2018-10-01T02:38:12.518Z,6.40
2018-10-01T02:40:41.379Z,5.70
2018-10-01T02:43:09.653Z,7.08
2018-10-01T02:45:37.929Z,6.30
2018-10-01T02:48:06.222Z,6.33
2018-10-01T02:50:34.400Z,5.60
2018-10-01T02:53:08.251Z,6.15
2018-10-01T02:55:36.464Z,5.17
2018-10-01T02:58:04.844Z,5.53
2018-10-01T03:00:33.068Z,5.17
2018-10-01T03:03:02.210Z,5.78
2018-10-01T03:05:30.385Z,5.83
2018-10-01T03:07:58.577Z,5.20
2018-10-01T03:10:26.828Z,5.10
2018-10-01T03:12:55.054Z,4.80
2018-10-01T03:15:23.226Z,5.15
2018-10-01T03:17:51.433Z,4.85
2018-10-01T03:20:19.590Z,4.50
2018-10-01T03:22:47.875Z,5.65
2018-10-01T03:25:16.048Z,5.75
2018-10-01T03:27:44.239Z,5.30
2018-10-01T03:30:12.425Z,5.75
2018-10-01T03:32:40.665Z,5.35
2018-10-01T03:35:08.891Z,5.60
2018-10-01T03:37:37.133Z,7.05
2018-10-01T03:40:05.589Z,5.03
2018-10-01T03:42:33.812Z,5.87
2018-10-01T03:45:02.095Z,5.70
2018-10-01T03:47:30.308Z,6.40
2018-10-01T03:49:58.570Z,5.95
2018-10-01T03:52:26.761Z,5.20
2018-10-01T03:54:54.975Z,5.95
2018-10-01T03:57:23.120Z,5.70
2018-10-01T03:59:51.396Z,6.50
2018-10-01T04:02:19.648Z,6.15
2018-10-01T04:04:47.928Z,5.60
2018-10-01T04:07:16.163Z,4.97
2018-10-01T04:09:44.347Z,5.85
2018-10-01T04:12:12.543Z,5.15
2018-10-01T04:14:40.961Z,6.35
2018-10-01T04:17:09.192Z,6.17
2018-10-01T04:19:37.392Z,5.05
2018-10-01T04:22:05.695Z,5.62
2018-10-01T04:24:34.021Z,5.25
2018-10-01T04:27:02.207Z,5.15
2018-10-01T04:29:30.423Z,5.90
2018-10-01T04:31:59.466Z,5.10
2018-10-01T04:34:27.688Z,5.58
2018-10-01T04:36:56.050Z,5.35
2018-10-01T04:39:24.315Z,5.72
2018-10-01T04:41:52.647Z,5.90
2018-10-01T04:44:20.866Z,5.62
2018-10-01T04:46:49.079Z,5.92
2018-10-01T04:49:17.279Z,6.08
2018-10-01T04:51:45.501Z,5.37
2018-10-01T04:54:13.733Z,5.08
2018-10-01T04:56:41.979Z,6.15
2018-10-01T04:59:10.986Z,5.08
2018-10-01T05:01:39.229Z,5.87
2018-10-01T05:04:07.494Z,6.00
2018-10-01T05:06:36.232Z,5.20
2018-10-01T05:09:06.921Z,5.35
2018-10-01T05:11:35.088Z,6.95
2018-10-01T05:14:03.313Z,6.90
2018-10-01T05:16:31.612Z,5.83
2018-10-01T05:18:59.864Z,5.15
2018-10-01T05:21:28.140Z,6.65
2018-10-01T05:23:56.384Z,6.20
2018-10-01T05:26:24.608Z,6.47
2018-10-01T05:28:52.763Z,6.12
2018-10-01T05:31:20.933Z,7.72
2018-10-01T05:33:49.160Z,6.70
2018-10-01T05:36:17.361Z,6.90
2018-10-01T05:38:45.592Z,8.23
2018-10-01T05:41:13.804Z,8.93
2018-10-01T05:43:41.969Z,8.75
2018-10-01T05:46:10.234Z,9.35
2018-10-01T05:48:38.405Z,9.75
2018-10-01T05:51:06.644Z,10.63
2018-10-01T05:53:34.892Z,12.30
2018-10-01T05:56:03.100Z,10.32
2018-10-01T05:58:31.344Z,12.40
2018-10-01T06:00:59.560Z,12.23
2018-10-01T06:03:27.992Z,13.25
2018-10-01T06:05:57.008Z,13.38
2018-10-01T06:08:25.568Z,14.80
2018-10-01T06:10:53.803Z,13.53
2018-10-01T06:13:22.045Z,14.30
2018-10-01T06:15:50.711Z,13.45
2018-10-01T06:18:19.077Z,14.07
2018-10-01T06:20:47.350Z,12.63
2018-10-01T06:23:15.654Z,13.62
2018-10-01T06:25:43.851Z,15.45
2018-10-01T06:28:12.124Z,15.93
2018-10-01T06:30:40.464Z,15.48
2018-10-01T06:33:09.075Z,14.13
2018-10-01T06:35:37.357Z,14.93
2018-10-01T06:38:05.652Z,15.00
2018-10-01T06:40:33.984Z,15.13
2018-10-01T06:43:02.214Z,17.57
2018-10-01T06:45:30.467Z,15.40
2018-10-01T06:47:58.748Z,16.85
2018-10-01T06:50:26.945Z,16.27
2018-10-01T06:52:55.204Z,15.58
2018-10-01T06:55:23.477Z,18.37
2018-10-01T06:57:52.376Z,14.78
2018-10-01T07:00:20.552Z,15.60
2018-10-01T07:02:48.709Z,17.32
2018-10-01T07:05:16.898Z,17.32
2018-10-01T07:07:45.164Z,16.30
2018-10-01T07:10:13.369Z,16.32
2018-10-01T07:12:41.725Z,17.65
2018-10-01T07:15:09.927Z,17.35
2018-10-01T07:17:38.096Z,17.77
2018-10-01T07:20:06.871Z,18.17
2018-10-01T07:22:35.150Z,16.90
2018-10-01T07:25:03.311Z,15.08
2018-10-01T07:27:31.588Z,15.83
2018-10-01T07:29:59.828Z,17.62
2018-10-01T07:32:28.044Z,19.20
2018-10-01T07:34:56.309Z,16.50
2018-10-01T07:37:24.656Z,15.00
2018-10-01T07:39:52.897Z,17.37
2018-10-01T07:42:21.129Z,15.08
2018-10-01T07:44:49.308Z,15.85
2018-10-01T07:47:17.723Z,14.33
2018-10-01T07:49:45.935Z,17.50
2018-10-01T07:52:14.112Z,18.62
2018-10-01T07:54:42.304Z,16.85
2018-10-01T07:57:10.562Z,18.85
2018-10-01T07:59:39.394Z,15.48
2018-10-01T08:02:07.751Z,18.67
2018-10-01T08:04:35.872Z,15.90
2018-10-01T08:07:04.049Z,17.65
2018-10-01T08:09:32.236Z,16.27
2018-10-01T08:12:00.419Z,15.58
2018-10-01T08:14:28.707Z,16.07
2018-10-01T08:16:57.101Z,16.82
2018-10-01T08:19:25.380Z,16.93
2018-10-01T08:21:53.545Z,16.45
2018-10-01T08:24:21.821Z,18.95
2018-10-01T08:26:50.021Z,18.85
2018-10-01T08:29:18.425Z,18.60
2018-10-01T08:31:46.511Z,19.48
2018-10-01T08:34:14.708Z,16.85
2018-10-01T08:36:42.924Z,17.00
2018-10-01T08:39:13.046Z,17.40
2018-10-01T08:41:41.632Z,15.13
2018-10-01T08:44:10.843Z,18.62
2018-10-01T08:46:39.003Z,16.40
2018-10-01T08:50:13.409Z,17.20
2018-10-01T08:52:47.867Z,18.15
2018-10-01T08:55:16.143Z,20.40
2018-10-01T08:57:44.358Z,18.95
2018-10-01T09:00:12.590Z,17.32
2018-10-01T09:02:40.834Z,16.57
2018-10-01T09:05:09.071Z,19.92
2018-10-01T09:07:37.372Z,16.60
2018-10-01T09:10:05.531Z,15.90
2018-10-01T09:12:33.773Z,14.18
2018-10-01T09:15:02.103Z,14.75
2018-10-01T09:17:30.315Z,15.30
2018-10-01T09:19:58.554Z,15.58
2018-10-01T09:22:26.785Z,15.98
2018-10-01T09:24:54.899Z,16.05
2018-10-01T09:27:23.112Z,15.63
2018-10-01T09:29:51.309Z,15.75
2018-10-01T09:32:19.638Z,15.28
2018-10-01T09:34:47.840Z,16.55
2018-10-01T09:37:16.095Z,16.62
2018-10-01T09:39:44.286Z,16.55
2018-10-01T09:42:12.645Z,14.38
2018-10-01T09:44:40.876Z,15.45
2018-10-01T09:47:09.075Z,14.73
2018-10-01T09:49:37.224Z,15.55
2018-10-01T09:52:05.613Z,14.83
2018-10-01T09:54:33.864Z,14.07
2018-10-01T09:57:02.053Z,13.55
2018-10-01T09:59:30.278Z,15.28
2018-10-01T10:01:58.485Z,15.43
2018-10-01T10:04:26.755Z,13.65
2018-10-01T10:06:54.885Z,12.07
2018-10-01T10:09:23.132Z,13.58
2018-10-01T10:11:51.311Z,12.58
2018-10-01T10:14:19.497Z,14.55
2018-10-01T10:16:47.825Z,13.28
2018-10-01T10:19:15.900Z,11.53
2018-10-01T10:21:44.081Z,10.88
2018-10-01T10:24:12.358Z,12.05
2018-10-01T10:26:40.574Z,10.68
2018-10-01T10:29:08.803Z,12.47
2018-10-01T10:31:37.108Z,13.65
2018-10-01T10:34:05.411Z,12.13
2018-10-01T10:36:33.623Z,12.28
2018-10-01T10:39:01.872Z,10.55
2018-10-01T10:41:30.136Z,10.85
2018-10-01T10:43:58.386Z,10.93
2018-10-01T10:46:26.590Z,9.60
2018-10-01T10:48:54.767Z,10.93
2018-10-01T10:51:22.939Z,10.85
2018-10-01T10:53:51.217Z,10.30
2018-10-01T10:56:19.533Z,9.60
2018-10-01T10:58:47.749Z,10.93
2018-10-01T11:01:16.001Z,10.53
2018-10-01T11:03:44.197Z,9.55
2018-10-01T11:06:12.456Z,7.85
2018-10-01T11:08:40.726Z,8.38
2018-10-01T11:11:08.928Z,9.35
2018-10-01T11:13:37.074Z,10.15
2018-10-01T11:16:05.340Z,8.78
2018-10-01T11:18:33.621Z,9.10
2018-10-01T11:21:01.915Z,10.15
2018-10-01T11:23:30.093Z,9.28
2018-10-01T11:25:58.335Z,9.73
2018-10-01T11:28:26.544Z,9.18
2018-10-01T11:30:54.706Z,8.55
2018-10-01T11:33:22.988Z,8.90
2018-10-01T11:35:51.211Z,8.95
2018-10-01T11:38:19.412Z,8.35
2018-10-01T11:40:47.694Z,7.80
2018-10-01T11:43:16.049Z,8.53
2018-10-01T11:45:44.423Z,7.83
2018-10-01T11:48:12.579Z,8.10
2018-10-01T11:50:40.753Z,7.65
2018-10-01T11:53:09.025Z,7.92
2018-10-01T11:55:37.590Z,6.17
2018-10-01T11:58:06.038Z,5.92
2018-10-01T12:00:34.332Z,7.30
2018-10-01T12:03:02.572Z,5.95
2018-10-01T12:05:30.733Z,5.90
2018-10-01T12:07:58.998Z,6.45
2018-10-01T12:10:27.344Z,6.47
2018-10-01T12:12:55.440Z,6.70
2018-10-01T12:15:23.695Z,7.35
2018-10-01T12:17:51.923Z,7.45
2018-10-01T12:20:20.154Z,6.15
2018-10-01T12:22:48.429Z,6.28
2018-10-01T12:25:16.616Z,5.55
2018-10-01T12:27:44.891Z,4.25
2018-10-01T12:30:12.984Z,3.60
2018-10-01T12:32:41.210Z,4.60
2018-10-01T12:35:09.562Z,5.30
2018-10-01T12:37:38.065Z,3.87
2018-10-01T12:40:06.472Z,4.00
2018-10-01T12:42:34.761Z,3.87
2018-10-01T12:45:03.036Z,3.05
2018-10-01T12:47:31.260Z,3.22
2018-10-01T12:49:59.538Z,3.20
2018-10-01T12:52:27.925Z,2.95
2018-10-01T12:54:56.191Z,2.60
2018-10-01T12:57:24.393Z,3.22
2018-10-01T12:59:52.570Z,3.20
2018-10-01T13:02:20.783Z,2.80
2018-10-01T13:04:48.989Z,2.55
2018-10-01T13:07:17.210Z,3.10
2018-10-01T13:09:45.778Z,2.92
2018-10-01T13:12:14.084Z,3.67
2018-10-01T13:14:42.923Z,1.70
2018-10-01T13:17:11.210Z,2.50
2018-10-01T13:19:39.427Z,2.22
2018-10-01T13:22:08.392Z,2.62
2018-10-01T13:24:36.718Z,3.35
2018-10-01T13:27:05.191Z,2.50
2018-10-01T13:29:33.437Z,2.60
2018-10-01T13:32:01.675Z,2.40
2018-10-01T13:34:29.960Z,2.98
2018-10-01T13:36:58.357Z,2.67
2018-10-01T13:39:26.652Z,2.10
2018-10-01T13:41:55.066Z,2.20
2018-10-01T13:44:23.264Z,2.10
2018-10-01T13:46:51.782Z,2.42
2018-10-01T13:49:19.967Z,2.67
2018-10-01T13:51:48.611Z,1.87
2018-10-01T13:54:16.941Z,2.72
2018-10-01T13:56:45.033Z,2.65
2018-10-01T13:59:13.263Z,3.20
2018-10-01T14:01:41.561Z,2.30
2018-10-01T14:04:09.704Z,2.65
2018-10-01T14:06:38.038Z,2.60
2018-10-01T14:09:09.311Z,2.75
2018-10-01T14:11:37.693Z,2.65
2018-10-01T14:14:06.129Z,3.27
2018-10-01T14:16:34.425Z,2.20
2018-10-01T14:19:02.714Z,2.15
2018-10-01T14:21:30.978Z,2.70
2018-10-01T14:23:59.192Z,2.05
2018-10-01T14:26:27.405Z,2.20
2018-10-01T14:28:55.733Z,2.35
2018-10-01T14:31:24.099Z,2.17
2018-10-01T14:33:53.194Z,2.25
2018-10-01T14:36:21.689Z,1.90
2018-10-01T14:38:49.970Z,2.05
2018-10-01T14:41:18.236Z,2.30
2018-10-01T14:43:46.540Z,2.37
2018-10-01T14:46:14.968Z,3.17
2018-10-01T14:48:43.257Z,2.70
2018-10-01T14:51:11.571Z,2.90
2018-10-01T14:53:39.802Z,2.72
2018-10-01T14:56:08.119Z,2.52
2018-10-01T14:58:36.380Z,2.98
2018-10-01T15:01:04.831Z,3.05
2018-10-01T15:03:33.062Z,2.77
2018-10-01T15:06:01.291Z,3.20
2018-10-01T15:08:29.644Z,3.70
2018-10-01T15:10:58.084Z,4.00
2018-10-01T15:13:26.164Z,2.52
2018-10-01T15:15:54.447Z,3.20
2018-10-01T15:18:22.702Z,3.00
2018-10-01T15:20:50.908Z,2.90
2018-10-01T15:23:19.188Z,3.55
2018-10-01T15:25:47.390Z,3.22
2018-10-01T15:28:15.598Z,2.90
2018-10-01T15:30:43.739Z,2.98
2018-10-01T15:33:12.248Z,2.80
2018-10-01T15:35:40.437Z,2.65
2018-10-01T15:38:08.727Z,2.60
2018-10-01T15:40:36.964Z,3.12
2018-10-01T15:43:05.291Z,2.58
2018-10-01T15:45:33.529Z,2.10
2018-10-01T15:48:01.841Z,2.50
2018-10-01T15:50:30.054Z,2.80
2018-10-01T15:52:58.414Z,3.30
2018-10-01T15:55:26.667Z,3.40
2018-10-01T15:57:55.005Z,5.00
2018-10-01T16:00:23.240Z,3.12
2018-10-01T16:02:51.543Z,2.92
2018-10-01T16:05:19.801Z,2.60
2018-10-01T16:07:48.042Z,2.80
2018-10-01T16:10:16.239Z,2.80
2018-10-01T16:12:44.489Z,2.40
2018-10-01T16:15:12.833Z,4.72
2018-10-01T16:17:41.126Z,2.10
2018-10-01T16:20:09.373Z,2.37
2018-10-01T16:22:37.604Z,2.72
2018-10-01T16:25:06.437Z,2.65
2018-10-01T16:27:34.668Z,2.42
2018-10-01T16:30:03.006Z,2.40
2018-10-01T16:32:31.215Z,2.55
2018-10-01T16:35:00.238Z,2.80
2018-10-01T16:37:28.466Z,4.15
2018-10-01T16:39:56.767Z,3.10
2018-10-01T16:42:26.767Z,2.72
2018-10-01T16:44:55.052Z,2.10
2018-10-01T16:47:23.301Z,2.42
2018-10-01T16:49:52.103Z,2.50
2018-10-01T16:52:21.523Z,2.02
2018-10-01T16:54:49.948Z,2.25
2018-10-01T16:57:20.988Z,2.40
2018-10-01T16:59:50.256Z,2.10
2018-10-01T17:02:19.426Z,2.15
2018-10-01T17:04:47.712Z,2.85
2018-10-01T17:07:16.214Z,2.22
2018-10-01T17:09:44.510Z,2.20
2018-10-01T17:12:13.566Z,2.75
2018-10-01T17:14:42.240Z,3.25
2018-10-01T17:17:11.862Z,2.92
2018-10-01T17:19:41.382Z,2.87
2018-10-01T17:22:09.632Z,2.70
2018-10-01T17:24:37.881Z,2.80
2018-10-01T17:27:10.425Z,2.87
2018-10-01T17:29:38.997Z,3.10
2018-10-01T17:32:07.523Z,2.85
2018-10-01T17:34:35.837Z,2.80
2018-10-01T17:37:04.150Z,2.72
2018-10-01T17:39:32.366Z,2.70
2018-10-01T17:42:00.694Z,2.70
2018-10-01T17:44:29.046Z,2.60
2018-10-01T17:46:57.374Z,2.50
2018-10-01T17:49:25.673Z,3.22
2018-10-01T17:51:53.937Z,3.10
2018-10-01T17:54:22.413Z,3.37
2018-10-01T17:56:50.688Z,3.17
2018-10-01T17:59:19.117Z,3.27
2018-10-01T18:01:47.593Z,3.35
2018-10-01T18:04:15.978Z,2.90
2018-10-01T18:06:44.440Z,3.15
2018-10-01T18:09:12.704Z,3.40
2018-10-01T18:11:41.097Z,3.50
2018-10-01T18:14:09.865Z,3.02
2018-10-01T18:16:38.171Z,2.72
2018-10-01T18:19:06.494Z,2.45
2018-10-01T18:21:35.444Z,2.15
2018-10-01T18:24:03.823Z,2.60
2018-10-01T18:26:32.417Z,2.80
2018-10-01T18:29:00.781Z,2.37
2018-10-01T18:31:29.094Z,2.47
2018-10-01T18:33:57.477Z,3.10
2018-10-01T18:36:25.784Z,2.85
2018-10-01T18:38:54.073Z,2.75
2018-10-01T18:41:22.416Z,3.00
2018-10-01T18:43:50.723Z,2.67
2018-10-01T18:46:19.109Z,2.83
2018-10-01T18:48:47.311Z,3.58
2018-10-01T18:51:15.749Z,2.65
2018-10-01T18:53:44.312Z,2.87
2018-10-01T18:56:12.750Z,3.30
2018-10-01T18:58:41.321Z,3.42
2018-10-01T19:01:09.618Z,3.60
2018-10-01T19:03:37.916Z,3.85
2018-10-01T19:06:06.115Z,2.95
2018-10-01T19:08:34.386Z,2.00
2018-10-01T19:11:02.716Z,2.12
2018-10-01T19:13:31.113Z,2.77
2018-10-01T19:15:59.450Z,3.30
2018-10-01T19:18:27.734Z,2.20
2018-10-01T19:20:56.120Z,2.30
2018-10-01T19:23:24.340Z,2.58
2018-10-01T19:25:52.754Z,2.30
2018-10-01T19:28:21.200Z,3.33
2018-10-01T19:30:49.736Z,2.70
2018-10-01T19:33:18.264Z,2.75
2018-10-01T19:35:46.701Z,2.40
2018-10-01T19:38:14.911Z,2.52
2018-10-01T19:40:43.235Z,2.87
2018-10-01T19:43:11.680Z,3.77
2018-10-01T19:45:40.201Z,4.60
2018-10-01T19:48:08.533Z,4.67
2018-10-01T19:50:36.918Z,3.47
2018-10-01T19:53:05.635Z,2.60
2018-10-01T19:55:34.004Z,3.45
2018-10-01T19:58:02.344Z,2.65
2018-10-01T20:00:30.689Z,2.70
2018-10-01T20:02:58.997Z,3.15
2018-10-01T20:05:27.329Z,2.90
2018-10-01T20:07:55.607Z,2.50
2018-10-01T20:10:23.926Z,3.00
2018-10-01T20:12:52.218Z,3.10
2018-10-01T20:15:20.862Z,2.98
2018-10-01T20:17:49.089Z,2.77
2018-10-01T20:20:18.020Z,3.30
2018-10-01T20:22:46.344Z,3.00
2018-10-01T20:25:14.752Z,2.70
2018-10-01T20:27:43.122Z,2.75
2018-10-01T20:30:13.690Z,2.58
2018-10-01T20:32:42.496Z,2.67
2018-10-01T20:35:10.950Z,3.08
2018-10-01T20:37:39.157Z,3.95
2018-10-01T20:40:08.444Z,3.15
2018-10-01T20:42:36.760Z,3.17
2018-10-01T20:45:05.361Z,3.62
2018-10-01T20:47:33.846Z,2.95
2018-10-01T20:50:02.187Z,3.37
2018-10-01T20:52:31.164Z,3.05
2018-10-01T20:54:59.412Z,4.12
2018-10-01T20:57:28.004Z,2.40
2018-10-01T20:59:56.384Z,2.85
2018-10-01T21:02:24.649Z,2.40
2018-10-01T21:04:52.936Z,4.15
2018-10-01T21:07:21.194Z,3.55
2018-10-01T21:09:49.453Z,3.62
2018-10-01T21:12:17.842Z,3.10
2018-10-01T21:14:46.163Z,3.12
2018-10-01T21:17:14.378Z,3.70
2018-10-01T21:19:42.610Z,2.72
2018-10-01T21:22:11.638Z,3.37
2018-10-01T21:24:39.853Z,3.02
2018-10-01T21:27:08.133Z,2.58
2018-10-01T21:29:36.323Z,3.35
2018-10-01T21:32:04.520Z,3.02
2018-10-01T21:34:32.907Z,3.10
2018-10-01T21:37:01.199Z,2.65
2018-10-01T21:40:14.947Z,2.85
2018-10-01T21:42:43.323Z,2.42
2018-10-01T21:45:12.847Z,2.40
2018-10-01T21:47:41.076Z,2.72
2018-10-01T21:50:09.271Z,3.55
2018-10-01T21:52:37.536Z,2.30
2018-10-01T21:55:06.069Z,3.12
2018-10-01T21:57:34.883Z,3.60
2018-10-01T22:00:04.317Z,4.92
2018-10-01T22:02:32.621Z,3.58
2018-10-01T22:05:00.924Z,3.55
2018-10-01T22:07:29.133Z,3.67
2018-10-01T22:09:57.335Z,4.40
2018-10-01T22:12:25.627Z,3.22
2018-10-01T22:14:53.844Z,3.22
2018-10-01T22:17:22.040Z,2.98
2018-10-01T22:19:50.387Z,2.65
2018-10-01T22:22:18.692Z,3.00
2018-10-01T22:24:46.857Z,4.10
2018-10-01T22:27:15.012Z,3.42
2018-10-01T22:29:43.230Z,3.65
2018-10-01T22:32:11.543Z,3.37
2018-10-01T22:34:39.772Z,3.25
2018-10-01T22:37:07.912Z,3.60
2018-10-01T22:39:36.178Z,3.25
2018-10-01T22:42:04.488Z,2.70
2018-10-01T22:44:32.643Z,2.80
2018-10-01T22:47:00.778Z,2.70
2018-10-01T22:49:28.981Z,2.77
2018-10-01T22:51:57.208Z,2.87
2018-10-01T22:54:25.407Z,2.98
2018-10-01T22:56:53.579Z,2.60
2018-10-01T22:59:21.728Z,2.75
2018-10-01T23:01:49.901Z,2.60
2018-10-01T23:04:18.084Z,2.60
2018-10-01T23:06:46.253Z,2.02
2018-10-01T23:09:14.383Z,2.60
2018-10-01T23:11:42.595Z,2.08
2018-10-01T23:14:10.828Z,2.20
2018-10-01T23:16:38.977Z,2.50
2018-10-01T23:19:07.139Z,2.17
2018-10-01T23:21:35.275Z,3.25
2018-10-01T23:24:03.732Z,2.80
2018-10-01T23:26:31.945Z,2.87
2018-10-01T23:29:00.157Z,2.90
2018-10-01T23:31:28.306Z,2.50
2018-10-01T23:33:56.468Z,3.77
2018-10-01T23:36:24.679Z,2.80
2018-10-01T23:38:52.856Z,2.50
2018-10-01T23:41:21.077Z,2.40
2018-10-01T23:43:49.363Z,2.00
2018-10-01T23:46:17.515Z,2.25
2018-10-01T23:48:45.687Z,3.08
2018-10-01T23:51:13.860Z,2.62
2018-10-01T23:53:42.891Z,2.20
2018-10-01T23:56:11.123Z,1.85
2018-10-01T23:58:39.336Z,2.30
